createdAt,value
2023-02-19T00:01:46.390Z,67.38
2023-02-19T00:04:16.237Z,67.47
2023-02-19T00:06:45.082Z,67.51
2023-02-19T00:09:13.927Z,67.62
2023-02-19T00:11:42.322Z,67.68
2023-02-19T00:14:11.517Z,67.97
2023-02-19T00:16:39.831Z,68.12
2023-02-19T00:19:09.293Z,68.22
2023-02-19T00:21:37.141Z,68.17
2023-02-19T00:24:05.930Z,68.23
2023-02-19T00:26:34.851Z,68.29
2023-02-19T00:29:02.893Z,68.23
2023-02-19T00:31:35.092Z,68.14
2023-02-19T00:34:04.471Z,67.98
2023-02-19T00:36:35.045Z,67.93
2023-02-19T00:39:03.566Z,67.90
2023-02-19T00:41:32.063Z,67.84
2023-02-19T00:44:01.833Z,67.84
2023-02-19T00:46:34.078Z,68.03
2023-02-19T00:49:02.256Z,68.04
2023-02-19T00:51:32.242Z,67.96
2023-02-19T00:54:00.388Z,67.96
2023-02-19T00:56:28.509Z,68.04
2023-02-19T00:58:56.550Z,68.05
2023-02-19T01:01:24.493Z,68.03
2023-02-19T01:03:53.131Z,68.15
2023-02-19T01:06:21.060Z,68.28
2023-02-19T01:08:49.146Z,68.27
2023-02-19T01:11:17.763Z,68.16
2023-02-19T01:13:45.900Z,68.22
2023-02-19T01:16:21.128Z,68.20
2023-02-19T01:18:49.020Z,68.18
2023-02-19T01:21:20.767Z,68.02
2023-02-19T01:23:49.447Z,67.99
2023-02-19T01:26:19.078Z,68.03
2023-02-19T01:28:48.439Z,67.92
2023-02-19T01:31:17.554Z,67.82
2023-02-19T01:33:46.965Z,67.90
2023-02-19T01:36:15.662Z,67.88
2023-02-19T01:38:43.442Z,67.77
2023-02-19T01:41:13.354Z,67.75
2023-02-19T01:43:57.960Z,67.76
2023-02-19T01:46:33.116Z,67.81
2023-02-19T01:49:04.618Z,67.91
2023-02-19T01:51:32.870Z,67.85
2023-02-19T01:54:02.783Z,68.18
2023-02-19T01:56:31.974Z,68.43
2023-02-19T01:59:00.535Z,68.49
2023-02-19T02:01:28.288Z,68.65
2023-02-19T02:03:56.760Z,68.71
2023-02-19T02:06:29.866Z,68.72
2023-02-19T02:09:16.962Z,68.67
2023-02-19T02:11:52.636Z,68.56
2023-02-19T02:14:23.778Z,68.57
2023-02-19T02:16:51.577Z,68.67
2023-02-19T02:19:39.670Z,68.89
2023-02-19T02:22:13.657Z,68.96
2023-02-19T02:24:50.934Z,68.91
2023-02-19T02:27:22.694Z,68.95
2023-02-19T02:29:59.435Z,68.81
2023-02-19T02:32:32.675Z,68.78
2023-02-19T02:35:11.559Z,68.79
2023-02-19T02:37:41.855Z,68.82
2023-02-19T02:40:10.932Z,68.70
2023-02-19T02:42:39.934Z,68.77
2023-02-19T02:45:38.028Z,68.66
2023-02-19T02:48:54.104Z,68.50
2023-02-19T02:51:25.432Z,68.58
2023-02-19T02:54:43.285Z,68.57
2023-02-19T02:57:14.982Z,68.52
2023-02-19T02:59:49.721Z,68.60
2023-02-19T03:02:25.236Z,68.59
2023-02-19T03:05:30.585Z,68.62
2023-02-19T03:08:04.274Z,68.54
2023-02-19T03:10:43.627Z,68.45
2023-02-19T03:13:34.500Z,68.41
2023-02-19T03:16:24.305Z,68.53
2023-02-19T03:19:12.503Z,68.80
2023-02-19T03:21:42.395Z,68.92
2023-02-19T03:24:30.471Z,68.94
2023-02-19T03:26:59.769Z,68.77
2023-02-19T03:29:32.105Z,68.68
2023-02-19T03:32:11.903Z,68.62
2023-02-19T03:34:53.195Z,68.74
2023-02-19T03:37:25.300Z,68.52
2023-02-19T03:39:54.086Z,68.56
2023-02-19T03:42:37.904Z,68.65
2023-02-19T03:45:15.270Z,68.68
2023-02-19T03:47:49.981Z,68.40
2023-02-19T03:50:21.644Z,68.50
2023-02-19T03:52:55.823Z,68.41
2023-02-19T03:55:42.875Z,68.57
2023-02-19T03:58:21.253Z,68.57
2023-02-19T04:00:53.341Z,68.39
2023-02-19T04:03:27.266Z,68.37
2023-02-19T04:06:03.150Z,68.31
2023-02-19T04:08:34.049Z,68.27
2023-02-19T04:11:04.650Z,68.15
2023-02-19T04:13:42.353Z,68.04
2023-02-19T04:16:13.756Z,67.91
2023-02-19T04:18:44.311Z,67.99
2023-02-19T04:21:12.966Z,67.79
2023-02-19T04:23:42.916Z,67.80
2023-02-19T04:26:12.142Z,67.61
2023-02-19T04:28:40.402Z,67.59
2023-02-19T04:31:08.453Z,67.50
2023-02-19T04:33:36.666Z,67.60
2023-02-19T04:36:04.747Z,67.59
2023-02-19T04:38:32.658Z,67.48
2023-02-19T04:41:00.722Z,67.44
2023-02-19T04:43:28.582Z,67.45
2023-02-19T04:45:59.981Z,67.55
2023-02-19T04:48:28.293Z,67.62
2023-02-19T04:50:56.255Z,67.69
2023-02-19T04:53:24.368Z,67.81
2023-02-19T04:55:53.461Z,67.95
2023-02-19T04:58:21.727Z,68.03
2023-02-19T05:00:53.153Z,68.03
2023-02-19T05:03:20.995Z,68.07
2023-02-19T05:05:48.780Z,68.04
2023-02-19T05:08:16.900Z,68.04
2023-02-19T05:10:44.922Z,68.03
2023-02-19T05:13:12.761Z,68.00
2023-02-19T05:15:41.058Z,67.90
2023-02-19T05:18:08.933Z,67.85
2023-02-19T05:20:36.964Z,67.84
2023-02-19T05:23:04.715Z,67.92
2023-02-19T05:25:32.666Z,68.01
2023-02-19T05:28:17.101Z,68.08
2023-02-19T05:30:46.231Z,68.09
2023-02-19T05:33:14.735Z,68.35
2023-02-19T05:35:43.823Z,68.18
2023-02-19T05:38:12.257Z,68.26
2023-02-19T05:40:40.361Z,68.12
2023-02-19T05:43:08.920Z,68.13
2023-02-19T05:45:37.197Z,68.08
2023-02-19T05:48:05.776Z,67.97
2023-02-19T05:50:35.210Z,67.95
2023-02-19T05:53:12.817Z,67.99
2023-02-19T05:55:40.836Z,67.91
2023-02-19T05:58:08.656Z,67.94
2023-02-19T06:00:36.531Z,67.89
2023-02-19T06:03:04.695Z,67.82
2023-02-19T06:05:32.885Z,67.79
2023-02-19T06:08:00.629Z,67.80
2023-02-19T06:10:28.743Z,67.92
2023-02-19T06:12:56.504Z,67.78
2023-02-19T06:15:24.257Z,67.84
2023-02-19T06:17:52.349Z,67.96
2023-02-19T06:20:20.129Z,67.83
2023-02-19T06:22:50.031Z,67.66
2023-02-19T06:25:18.797Z,67.67
2023-02-19T06:27:46.696Z,67.62
2023-02-19T06:30:14.596Z,67.68
2023-02-19T06:32:42.359Z,67.73
2023-02-19T06:35:10.122Z,67.66
2023-02-19T06:37:38.206Z,67.89
2023-02-19T06:40:06.444Z,67.87
2023-02-19T06:42:34.806Z,68.01
2023-02-19T06:45:02.878Z,68.28
2023-02-19T06:47:32.001Z,68.59
2023-02-19T06:50:00.592Z,68.81
2023-02-19T06:52:28.460Z,68.87
2023-02-19T06:54:56.318Z,68.98
2023-02-19T06:57:24.085Z,69.14
2023-02-19T06:59:51.790Z,69.48
2023-02-19T07:02:19.860Z,69.78
2023-02-19T07:04:47.809Z,69.80
2023-02-19T07:07:15.534Z,69.89
2023-02-19T07:09:43.465Z,69.81
2023-02-19T07:12:11.946Z,69.74
2023-02-19T07:14:40.388Z,69.73
2023-02-19T07:17:08.179Z,69.84
2023-02-19T07:19:36.151Z,70.09
2023-02-19T07:22:04.195Z,70.15
2023-02-19T07:24:32.189Z,70.47
2023-02-19T07:26:59.981Z,70.86
2023-02-19T07:29:28.564Z,70.95
2023-02-19T07:31:57.206Z,71.19
2023-02-19T07:34:25.119Z,71.36
2023-02-19T07:36:53.280Z,71.44
2023-02-19T07:39:21.261Z,71.72
2023-02-19T07:41:49.423Z,71.78
2023-02-19T07:44:26.844Z,71.84
2023-02-19T07:46:54.891Z,71.85
2023-02-19T07:51:26.698Z,73.63
2023-02-19T07:53:54.602Z,72.10
2023-02-19T07:56:22.673Z,72.00
2023-02-19T07:58:50.794Z,72.08
2023-02-19T08:01:40.999Z,72.26
2023-02-19T08:04:09.308Z,72.46
2023-02-19T08:06:37.494Z,72.39
2023-02-19T08:09:06.143Z,72.41
2023-02-19T08:11:52.786Z,72.39
2023-02-19T08:14:25.349Z,72.27
2023-02-19T08:16:54.359Z,72.33
2023-02-19T08:19:22.319Z,72.48
2023-02-19T08:21:53.992Z,72.41
2023-02-19T08:24:22.292Z,72.35
2023-02-19T08:26:51.020Z,72.46
2023-02-19T08:29:19.481Z,72.38
2023-02-19T08:31:48.606Z,72.24
2023-02-19T08:34:17.217Z,72.25
2023-02-19T08:36:45.409Z,72.16
2023-02-19T08:39:13.842Z,71.96
2023-02-19T08:41:42.434Z,71.88
2023-02-19T08:44:10.430Z,71.83
2023-02-19T08:46:38.633Z,71.88
2023-02-19T08:49:06.625Z,72.93
2023-02-19T08:51:34.500Z,72.85
2023-02-19T08:54:04.413Z,72.72
2023-02-19T08:56:32.567Z,71.30
2023-02-19T08:59:00.547Z,71.15
2023-02-19T09:01:28.832Z,71.10
2023-02-19T09:03:57.266Z,71.28
2023-02-19T09:06:25.497Z,71.43
2023-02-19T09:08:53.458Z,71.45
2023-02-19T09:11:21.733Z,71.36
2023-02-19T09:13:49.602Z,71.28
2023-02-19T09:16:17.778Z,71.43
2023-02-19T09:18:45.972Z,71.31
2023-02-19T09:21:14.407Z,71.28
2023-02-19T09:23:42.962Z,71.41
2023-02-19T09:26:11.544Z,71.38
2023-02-19T09:28:41.885Z,71.53
2023-02-19T09:31:14.388Z,71.64
2023-02-19T09:33:47.398Z,71.68
2023-02-19T09:36:16.742Z,71.70
2023-02-19T09:38:45.150Z,71.71
2023-02-19T09:41:26.333Z,71.80
2023-02-19T09:43:54.976Z,71.64
2023-02-19T09:46:32.548Z,71.38
2023-02-19T09:49:08.195Z,71.19
2023-02-19T09:51:40.272Z,71.04
2023-02-19T09:54:18.004Z,71.07
2023-02-19T09:56:46.298Z,70.85
2023-02-19T09:59:31.623Z,70.78
2023-02-19T10:02:23.660Z,70.69
2023-02-19T10:04:53.329Z,70.78
2023-02-19T10:07:28.366Z,70.76
2023-02-19T10:10:03.605Z,70.66
2023-02-19T10:12:32.662Z,70.57
2023-02-19T10:15:17.867Z,70.67
2023-02-19T10:17:46.232Z,70.54
2023-02-19T10:20:24.641Z,70.61
2023-02-19T10:23:04.949Z,70.72
2023-02-19T10:25:34.528Z,70.86
2023-02-19T10:28:03.532Z,70.69
2023-02-19T10:30:35.513Z,70.75
2023-02-19T10:33:09.715Z,70.83
2023-02-19T10:35:51.630Z,70.91
2023-02-19T10:38:24.011Z,70.79
2023-02-19T10:41:06.372Z,70.82
2023-02-19T10:43:41.161Z,70.80
2023-02-19T10:46:28.500Z,70.62
2023-02-19T10:49:04.201Z,70.54
2023-02-19T10:51:34.400Z,70.30
2023-02-19T10:54:07.667Z,70.21
2023-02-19T10:56:38.580Z,70.14
2023-02-19T10:59:24.801Z,70.19
2023-02-19T11:02:00.361Z,70.41
2023-02-19T11:04:35.385Z,70.62
2023-02-19T11:07:14.237Z,70.97
2023-02-19T11:09:45.523Z,71.44
2023-02-19T11:12:15.169Z,71.91
2023-02-19T11:14:45.181Z,72.41
2023-02-19T11:17:25.083Z,72.64
2023-02-19T11:20:00.841Z,72.86
2023-02-19T11:22:34.037Z,72.95
2023-02-19T11:25:20.751Z,72.87
2023-02-19T11:28:07.024Z,72.70
2023-02-19T11:30:39.915Z,72.70
2023-02-19T11:33:17.041Z,72.79
2023-02-19T11:35:48.998Z,72.94
2023-02-19T11:38:19.907Z,73.09
2023-02-19T11:41:17.089Z,73.22
2023-02-19T11:44:04.519Z,73.11
2023-02-19T11:47:11.683Z,73.28
2023-02-19T11:50:11.408Z,73.33
2023-02-19T11:52:55.085Z,73.38
2023-02-19T11:55:41.756Z,73.27
2023-02-19T11:58:28.456Z,73.12
2023-02-19T12:01:35.099Z,73.14
2023-02-19T12:04:18.239Z,73.27
2023-02-19T12:07:29.742Z,73.51
2023-02-19T12:10:25.728Z,74.20
2023-02-19T12:13:00.540Z,74.71
2023-02-19T12:15:50.777Z,74.97
2023-02-19T12:18:40.881Z,74.89
2023-02-19T12:21:24.903Z,74.76
2023-02-19T12:24:12.038Z,74.77
2023-02-19T12:27:13.058Z,74.85
2023-02-19T12:29:41.081Z,74.94
2023-02-19T12:32:28.917Z,75.03
2023-02-19T12:34:56.749Z,75.03
2023-02-19T12:37:30.750Z,75.09
2023-02-19T12:40:33.004Z,75.05
2023-02-19T12:43:13.783Z,74.86
2023-02-19T12:45:57.953Z,74.85
2023-02-19T12:48:30.304Z,74.98
2023-02-19T12:51:30.420Z,74.98
2023-02-19T12:54:07.249Z,74.52
2023-02-19T12:56:42.967Z,74.02
2023-02-19T12:59:16.905Z,73.60
2023-02-19T13:01:59.447Z,73.40
2023-02-19T13:04:43.278Z,73.14
2023-02-19T13:07:17.520Z,72.70
2023-02-19T13:09:54.503Z,72.47
2023-02-19T13:12:30.318Z,75.28
2023-02-19T13:15:03.685Z,72.63
2023-02-19T13:17:38.305Z,70.57
2023-02-19T13:20:37.088Z,70.27
2023-02-19T13:23:47.560Z,71.80
2023-02-19T13:26:43.261Z,69.91
2023-02-19T13:29:37.181Z,69.23
2023-02-19T13:32:23.348Z,69.37
2023-02-19T13:35:06.712Z,69.54
2023-02-19T13:37:35.421Z,69.39
2023-02-19T13:40:18.729Z,68.99
2023-02-19T13:42:56.115Z,69.17
2023-02-19T13:45:46.076Z,69.74
2023-02-19T13:48:36.112Z,70.41
2023-02-19T13:51:13.524Z,71.24
2023-02-19T13:53:44.894Z,71.70
2023-02-19T13:56:36.972Z,71.86
2023-02-19T13:59:10.882Z,71.22
2023-02-19T14:01:53.865Z,69.90
2023-02-19T14:04:32.666Z,68.89
2023-02-19T14:07:03.696Z,68.20
2023-02-19T14:09:34.367Z,67.81
2023-02-19T14:12:09.604Z,67.54
2023-02-19T14:14:54.522Z,67.59
2023-02-19T14:17:27.181Z,67.58
2023-02-19T14:19:58.862Z,67.67
2023-02-19T14:22:45.219Z,67.85
2023-02-19T14:25:31.939Z,68.94
2023-02-19T14:28:05.707Z,68.33
2023-02-19T14:30:40.806Z,68.40
2023-02-19T14:33:11.430Z,68.56
2023-02-19T14:35:43.777Z,68.37
2023-02-19T14:38:21.261Z,68.31
2023-02-19T14:40:50.932Z,68.38
2023-02-19T14:43:21.305Z,68.55
2023-02-19T14:46:00.545Z,68.70
2023-02-19T14:48:49.305Z,68.97
2023-02-19T14:51:41.458Z,69.18
2023-02-19T14:54:21.774Z,69.39
2023-02-19T14:56:52.847Z,69.42
2023-02-19T14:59:20.679Z,69.25
2023-02-19T15:02:03.668Z,69.01
2023-02-19T15:04:36.813Z,69.05
2023-02-19T15:07:08.430Z,69.70
2023-02-19T15:09:47.447Z,70.02
2023-02-19T15:12:18.712Z,70.22
2023-02-19T15:14:48.638Z,70.16
2023-02-19T15:17:31.655Z,70.38
2023-02-19T15:20:05.714Z,70.89
2023-02-19T15:22:33.677Z,71.28
2023-02-19T15:25:06.268Z,71.44
2023-02-19T15:27:35.122Z,71.59
2023-02-19T15:30:03.456Z,72.48
2023-02-19T15:32:32.738Z,73.08
2023-02-19T15:35:03.253Z,71.74
2023-02-19T15:37:34.056Z,70.03
2023-02-19T15:40:07.761Z,68.74
2023-02-19T15:42:38.143Z,68.46
2023-02-19T15:45:31.832Z,68.85
2023-02-19T15:48:20.370Z,68.81
2023-02-19T15:50:52.949Z,68.76
2023-02-19T15:53:25.166Z,68.52
2023-02-19T15:55:59.168Z,68.69
2023-02-19T15:58:40.550Z,68.79
2023-02-19T16:01:14.715Z,69.11
2023-02-19T16:03:43.150Z,69.58
2023-02-19T16:06:15.283Z,70.31
2023-02-19T16:08:45.666Z,70.76
2023-02-19T16:11:22.905Z,71.59
2023-02-19T16:13:51.984Z,72.54
2023-02-19T16:16:30.526Z,72.89
2023-02-19T16:18:58.755Z,73.26
2023-02-19T16:21:28.391Z,73.41
2023-02-19T16:24:18.701Z,73.51
2023-02-19T16:26:47.130Z,73.16
2023-02-19T16:29:30.384Z,73.07
2023-02-19T16:32:01.839Z,72.43
2023-02-19T16:34:47.346Z,71.82
2023-02-19T16:37:33.333Z,71.04
2023-02-19T16:40:21.588Z,70.31
2023-02-19T16:42:49.717Z,69.65
2023-02-19T16:45:18.296Z,69.23
2023-02-19T16:47:51.410Z,68.93
2023-02-19T16:50:22.133Z,68.29
2023-02-19T16:52:50.740Z,67.89
2023-02-19T16:55:18.606Z,67.03
2023-02-19T16:57:46.598Z,66.86
2023-02-19T17:00:23.879Z,66.81
2023-02-19T17:02:54.643Z,66.85
2023-02-19T17:05:25.541Z,66.92
2023-02-19T17:07:54.223Z,66.77
2023-02-19T17:10:25.749Z,66.85
2023-02-19T17:12:56.106Z,66.95
2023-02-19T17:15:24.018Z,66.68
2023-02-19T17:17:51.943Z,66.78
2023-02-19T17:20:27.829Z,66.77
2023-02-19T17:22:56.711Z,67.01
2023-02-19T17:25:25.103Z,66.92
2023-02-19T17:27:53.130Z,67.15
2023-02-19T17:30:28.570Z,67.20
2023-02-19T17:32:56.883Z,67.20
2023-02-19T17:35:25.300Z,67.19
2023-02-19T17:37:53.609Z,67.24
2023-02-19T17:40:32.681Z,67.33
2023-02-19T17:43:01.685Z,67.38
2023-02-19T17:45:29.973Z,67.38
2023-02-19T17:47:58.618Z,67.58
2023-02-19T17:50:32.100Z,67.71
2023-02-19T17:53:00.184Z,67.90
2023-02-19T17:55:28.189Z,68.02
2023-02-19T17:57:56.925Z,68.14
2023-02-19T18:00:28.126Z,68.21
2023-02-19T18:02:56.456Z,68.37
2023-02-19T18:05:25.214Z,68.27
2023-02-19T18:07:53.270Z,68.37
2023-02-19T18:10:26.046Z,68.41
2023-02-19T18:12:54.414Z,68.27
2023-02-19T18:15:26.761Z,68.24
2023-02-19T18:17:56.427Z,68.17
2023-02-19T18:20:28.917Z,68.04
2023-02-19T18:22:57.913Z,68.16
2023-02-19T18:25:25.900Z,67.98
2023-02-19T18:27:54.670Z,68.03
2023-02-19T18:30:23.866Z,68.02
2023-02-19T18:32:52.104Z,68.07
2023-02-19T18:35:21.413Z,67.96
2023-02-19T18:37:53.351Z,67.98
2023-02-19T18:40:26.412Z,67.98
2023-02-19T18:42:54.710Z,67.87
2023-02-19T18:45:22.669Z,67.81
2023-02-19T18:47:51.487Z,67.66
2023-02-19T18:50:20.641Z,67.53
2023-02-19T18:52:48.735Z,67.51
2023-02-19T18:55:16.942Z,67.38
2023-02-19T18:57:45.942Z,67.47
2023-02-19T19:00:19.518Z,67.46
2023-02-19T19:02:50.520Z,67.41
2023-02-19T19:05:23.537Z,67.47
2023-02-19T19:07:56.786Z,67.35
2023-02-19T19:10:25.173Z,67.29
2023-02-19T19:12:54.444Z,67.23
2023-02-19T19:15:23.127Z,67.11
2023-02-19T19:17:51.635Z,67.21
2023-02-19T19:20:21.685Z,67.19
2023-02-19T19:22:51.566Z,67.33
2023-02-19T19:25:21.929Z,67.40
2023-02-19T19:27:53.220Z,67.37
2023-02-19T19:30:22.349Z,67.34
2023-02-19T19:32:52.483Z,67.38
2023-02-19T19:35:21.878Z,67.58
2023-02-19T19:37:49.989Z,67.73
2023-02-19T19:40:18.653Z,67.74
2023-02-19T19:42:47.058Z,67.80
2023-02-19T19:45:15.812Z,67.84
2023-02-19T19:47:43.801Z,67.72
2023-02-19T19:50:14.600Z,67.90
2023-02-19T19:52:42.334Z,67.86
2023-02-19T19:55:10.651Z,67.83
2023-02-19T19:57:40.872Z,67.80
2023-02-19T20:00:14.328Z,67.97
2023-02-19T20:02:42.831Z,68.15
2023-02-19T20:05:13.215Z,68.12
2023-02-19T20:07:41.303Z,68.05
2023-02-19T20:10:11.893Z,68.15
2023-02-19T20:12:40.753Z,68.14
2023-02-19T20:15:09.860Z,67.05
2023-02-19T20:17:38.191Z,66.36
2023-02-19T20:20:07.444Z,65.99
2023-02-19T20:22:36.740Z,65.90
2023-02-19T20:25:06.058Z,65.79
2023-02-19T20:27:34.278Z,65.04
2023-02-19T20:30:02.462Z,63.33
2023-02-19T20:32:30.863Z,61.98
2023-02-19T20:34:58.712Z,61.51
2023-02-19T20:37:26.931Z,61.40
2023-02-19T20:39:55.172Z,61.74
2023-02-19T20:42:23.203Z,62.24
2023-02-19T20:44:51.068Z,61.95
2023-02-19T20:47:19.176Z,61.61
2023-02-19T20:49:47.264Z,61.21
2023-02-19T20:52:17.145Z,60.73
2023-02-19T20:54:45.719Z,60.60
2023-02-19T20:57:14.555Z,61.58
2023-02-19T20:59:44.161Z,62.33
2023-02-19T21:02:18.874Z,63.42
2023-02-19T21:04:47.960Z,64.69
2023-02-19T21:07:16.761Z,65.59
2023-02-19T21:09:44.914Z,65.86
2023-02-19T21:12:13.801Z,66.09
2023-02-19T21:14:42.239Z,66.69
2023-02-19T21:17:10.192Z,66.84
2023-02-19T21:19:38.295Z,67.77
2023-02-19T21:22:06.387Z,68.26
2023-02-19T21:24:34.604Z,68.47
2023-02-19T21:27:02.474Z,68.80
2023-02-19T21:29:30.481Z,69.14
2023-02-19T21:31:59.166Z,69.15
2023-02-19T21:34:29.413Z,68.75
2023-02-19T21:36:57.572Z,68.40
2023-02-19T21:39:28.727Z,67.95
2023-02-19T21:41:58.738Z,68.33
2023-02-19T21:44:26.788Z,68.83
2023-02-19T21:46:54.966Z,68.85
2023-02-19T21:49:23.224Z,69.00
2023-02-19T21:51:51.034Z,69.23
2023-02-19T21:54:25.209Z,69.21
2023-02-19T21:56:53.913Z,69.25
2023-02-19T21:59:22.643Z,68.87
2023-02-19T22:01:50.835Z,68.89
2023-02-19T22:04:21.398Z,69.20
2023-02-19T22:06:49.281Z,69.13
2023-02-19T22:09:17.563Z,68.70
2023-02-19T22:11:45.775Z,68.71
2023-02-19T22:14:13.935Z,68.53
2023-02-19T22:16:42.180Z,68.52
2023-02-19T22:19:12.097Z,68.19
2023-02-19T22:21:45.138Z,67.67
2023-02-19T22:24:18.992Z,67.62
2023-02-19T22:26:48.109Z,67.51
2023-02-19T22:29:16.914Z,67.30
2023-02-19T22:31:45.158Z,66.66
2023-02-19T22:34:14.018Z,66.03
2023-02-19T22:36:42.719Z,65.66
2023-02-19T22:39:19.005Z,64.86
2023-02-19T22:41:47.771Z,64.02
2023-02-19T22:44:16.199Z,63.68
2023-02-19T22:46:50.410Z,64.37
2023-02-19T22:49:19.590Z,64.13
2023-02-19T22:52:02.325Z,64.51
2023-02-19T22:54:30.352Z,64.45
2023-02-19T22:56:58.343Z,63.51
2023-02-19T22:59:26.340Z,63.06
2023-02-19T23:01:54.823Z,63.37
2023-02-19T23:04:24.567Z,63.48
2023-02-19T23:06:53.010Z,62.85
2023-02-19T23:09:24.769Z,61.94
2023-02-19T23:11:53.653Z,60.14
2023-02-19T23:14:22.180Z,60.02
2023-02-19T23:16:50.081Z,58.73
2023-02-19T23:19:18.087Z,57.58
2023-02-19T23:21:46.711Z,57.28
2023-02-19T23:24:15.393Z,56.02
2023-02-19T23:26:49.205Z,56.13
2023-02-19T23:29:20.142Z,55.69
2023-02-19T23:31:48.276Z,54.62
2023-02-19T23:34:16.755Z,54.79
2023-02-19T23:36:48.245Z,55.38
2023-02-19T23:39:18.810Z,55.55
2023-02-19T23:41:53.438Z,54.07
2023-02-19T23:44:23.554Z,54.55
2023-02-19T23:46:52.133Z,53.88
2023-02-19T23:49:20.098Z,53.41
2023-02-19T23:51:48.394Z,53.82
2023-02-19T23:54:16.544Z,53.14
2023-02-19T23:56:44.507Z,52.62
2023-02-19T23:59:12.758Z,52.39
